KGFA/GFA METAR and TAF weather

Enter ICAO airport designator
Station Type Date Time Source
KGFA METAR 2023/01/30 09:55 UTC NOAA

KGFA 300955Z AUTO 23018KT 10SM BKN110 OVC130 M17/M22 A3013 RMK AO2 SLP333 T11691218 $


Station Type Date Time Source
KGFA Decoded METAR 2023/01/30 09:55 UTC NOAA

Malmstrom Air Force Base, MT, United States (KGFA) 47-30N 111-11W
Jan 30, 2023 - 04:55 AM EST / 2023.01.30 0955 UTC
Wind: from the SW (230 degrees) at 21 MPH (18 KT):0
Visibility: 10 mile(s):0
Sky conditions: overcast
Temperature: 1.6 F (-16.9 C)
Windchill: -20 F (-29 C):2
Dew Point: -7.2 F (-21.8 C)
Relative Humidity: 65%
Pressure (altimeter): 30.13 in. Hg (1020 hPa)
ob: KGFA 300955Z AUTO 23018KT 10SM BKN110 OVC130 M17/M22 A3013 RMK AO2 SLP333 T11691218
cycle: 10

Station Type Date Time Source
KGFA TAF 2023/01/27 21:03 UTC NOAA

TAF KGFA 272100Z 2721/2903 24009KT 4800 -SN BR BKN006 OVC010 620068 QNH2975INS
TEMPO 2721/2722 1600 -SN BR OVC008 620088
BECMG 2721/2722 03009KT 4800 -SN BKN010 OVC020 620207 QNH2980INS
BECMG 2802/2803 02009KT 8000 BR BKN030 620304 QNH2994INS
TEMPO 2805/2810 3200 -SHSN BKN020 610205
BECMG 2812/2813 04009KT 3200 -SHSN BR BKN030 610306 QNH3015INS TX00/2721Z TNM12/2813Z LAST NO
AMDS AFT 2721 NEXT 3013

Example: see airport list